Time;durP1;ratioP1;P1;durP2;ratioP2;P2;SDS_P1;SDS_P2;PMS_P1;PMS_P2;Temp;Humidity;BMP_temperature;BMP_pressure;BME280_temperature;BME280_humidity;BME280_pressure;Samples;Min_cycle;Max_cycle;Signal;HPM_P1;HPM_P2
2023/12/30 00:01:55;;;;;;;1.05;0.65;;;;;;;4.82;100.00;99608.91;10439863;28;20049;-83
2023/12/30 00:06:58;;;;;;;1.08;0.88;;;;;;;4.67;100.00;99614.47;10418717;28;20053;-82
2023/12/30 00:12:02;;;;;;;1.27;0.55;;;;;;;4.73;100.00;99622.88;10397419;28;20056;-81
2023/12/30 00:17:06;;;;;;;1.33;0.30;;;;;;;3.79;100.00;99622.97;10438883;28;20060;-82
2023/12/30 00:22:09;;;;;;;0.80;0.43;;;;;;;4.01;100.00;99642.81;10417986;28;20428;-82
2023/12/30 00:27:13;;;;;;;1.58;0.50;;;;;;;4.16;100.00;99674.53;10427135;28;20052;-82
2023/12/30 00:32:17;;;;;;;1.75;0.40;;;;;;;3.26;100.00;99648.44;10418528;28;20044;-82
2023/12/30 00:37:20;;;;;;;2.78;0.25;;;;;;;3.04;100.00;99623.28;10399720;28;21218;-82
2023/12/30 00:42:25;;;;;;;1.42;0.50;;;;;;;3.51;100.00;99634.47;10390811;28;20550;-82
2023/12/30 00:47:29;;;;;;;1.05;0.40;;;;;;;3.74;100.00;99633.03;10406545;28;20052;-84
2023/12/30 00:52:32;;;;;;;3.47;0.47;;;;;;;4.00;100.00;99633.97;10427709;28;20534;-83
2023/12/30 00:57:35;;;;;;;1.50;0.65;;;;;;;3.94;100.00;99639.69;10429018;28;20778;-83
2023/12/30 01:02:40;;;;;;;0.50;0.30;;;;;;;4.06;100.00;99628.28;10404044;28;20056;-80
2023/12/30 01:07:43;;;;;;;0.57;0.20;;;;;;;4.26;100.00;99634.06;10427074;28;20518;-83
2023/12/30 01:12:46;;;;;;;1.98;0.60;;;;;;;4.43;100.00;99652.41;10412266;28;20115;-82
2023/12/30 01:17:50;;;;;;;1.98;0.60;;;;;;;4.31;100.00;99662.06;10409126;28;20048;-81
2023/12/30 01:22:53;;;;;;;1.27;0.50;;;;;;;4.41;100.00;99680.91;10404297;28;20135;-83
2023/12/30 01:27:57;;;;;;;4.05;0.60;;;;;;;4.32;100.00;99689.50;10398510;28;20131;-81
2023/12/30 01:33:01;;;;;;;2.15;0.50;;;;;;;4.51;100.00;99697.09;10417415;28;20045;-80
2023/12/30 01:38:06;;;;;;;0.82;0.60;;;;;;;4.54;100.00;99689.75;10415980;28;20055;-82
2023/12/30 01:43:23;;;;;;;0.77;0.38;;;;;;;4.32;100.00;99697.47;10433653;28;20044;-80
2023/12/30 01:48:29;;;;;;;1.73;0.60;;;;;;;4.14;100.00;99695.06;10426674;28;20044;-79
2023/12/30 01:53:33;;;;;;;1.83;0.70;;;;;;;4.23;100.00;99706.06;10415318;28;20041;-80
2023/12/30 01:58:36;;;;;;;4.80;0.93;;;;;;;4.40;100.00;99701.31;10423654;28;20101;-80
2023/12/30 02:03:41;;;;;;;5.97;1.10;;;;;;;4.35;100.00;99726.50;10425566;28;20566;-78
2023/12/30 02:08:44;;;;;;;4.80;0.93;;;;;;;4.38;100.00;99723.66;10455937;28;20044;-81
2023/12/30 02:13:48;;;;;;;3.05;0.68;;;;;;;4.57;100.00;99723.28;10431750;28;20055;-83
2023/12/30 02:18:52;;;;;;;3.38;2.00;;;;;;;4.34;100.00;99728.31;10428048;28;20036;-80
2023/12/30 02:23:57;;;;;;;6.10;0.98;;;;;;;4.45;100.00;99716.13;10433694;28;20460;-81
2023/12/30 02:29:00;;;;;;;3.95;0.75;;;;;;;4.26;100.00;99735.09;10443441;28;20041;-81
2023/12/30 02:34:03;;;;;;;2.35;0.88;;;;;;;4.31;100.00;99747.16;10443215;28;20052;-81
2023/12/30 02:39:07;;;;;;;4.43;0.50;;;;;;;4.05;100.00;99763.91;10437696;28;20064;-79
2023/12/30 02:44:11;;;;;;;4.90;0.40;;;;;;;4.24;100.00;99758.25;10428997;28;20051;-81
2023/12/30 02:49:13;;;;;;;2.70;0.73;;;;;;;4.20;100.00;99762.06;10439852;28;20182;-82
2023/12/30 02:54:19;;;;;;;3.65;1.00;;;;;;;4.28;100.00;99759.75;10431514;28;20103;-80
2023/12/30 02:59:22;;;;;;;1.88;0.73;;;;;;;4.31;100.00;99770.22;10406264;28;20150;-80
2023/12/30 03:04:25;;;;;;;3.38;0.70;;;;;;;4.38;100.00;99775.03;10444944;28;20052;-80
2023/12/30 03:09:29;;;;;;;6.28;0.70;;;;;;;4.29;100.00;99788.06;10417021;28;20051;-80
2023/12/30 03:14:32;;;;;;;2.33;0.60;;;;;;;4.17;100.00;99768.47;10432025;28;20052;-79
2023/12/30 03:19:35;;;;;;;6.05;0.90;;;;;;;4.30;100.00;99781.78;10418505;28;20048;-79
2023/12/30 03:24:40;;;;;;;6.75;0.80;;;;;;;4.32;100.00;99786.06;10430224;28;20044;-80
2023/12/30 03:29:45;;;;;;;5.28;1.00;;;;;;;4.29;100.00;99790.72;10438892;28;20037;-81
2023/12/30 03:34:48;;;;;;;10.57;1.60;;;;;;;4.29;100.00;99790.72;10438964;28;20052;-79
2023/12/30 03:39:52;;;;;;;5.00;0.90;;;;;;;4.30;100.00;99795.09;10423193;28;20060;-81
2023/12/30 03:44:56;;;;;;;9.35;1.48;;;;;;;4.37;100.00;99810.56;10462355;28;20059;-79
2023/12/30 03:49:59;;;;;;;6.97;1.13;;;;;;;4.35;100.00;99809.78;10463309;28;20052;-81
2023/12/30 03:55:05;;;;;;;4.63;0.80;;;;;;;4.43;100.00;99833.25;10454961;28;20398;-82
2023/12/30 04:00:09;;;;;;;6.07;1.00;;;;;;;4.36;100.00;99823.94;10441212;28;20625;-82
2023/12/30 04:05:15;;;;;;;3.70;0.77;;;;;;;4.54;100.00;99822.75;10425590;28;20612;-80
2023/12/30 04:10:19;;;;;;;4.90;1.02;;;;;;;4.59;100.00;99825.97;10440849;28;20060;-81
2023/12/30 04:15:23;;;;;;;3.95;1.65;;;;;;;4.60;100.00;99827.66;10438368;28;21203;-81
2023/12/30 04:20:26;;;;;;;8.88;1.27;;;;;;;4.49;100.00;99826.66;10436378;28;20684;-79
2023/12/30 04:25:30;;;;;;;8.35;2.03;;;;;;;4.92;100.00;99830.03;10445013;28;20045;-82
2023/12/30 04:30:33;;;;;;;6.03;1.65;;;;;;;4.72;100.00;99846.47;10412922;28;20041;-81
2023/12/30 04:35:38;;;;;;;11.32;2.10;;;;;;;4.52;100.00;99845.09;10439700;28;20093;-81
2023/12/30 04:40:43;;;;;;;6.32;1.83;;;;;;;4.59;100.00;99841.09;10413149;28;20045;-78
2023/12/30 04:45:46;;;;;;;8.35;1.70;;;;;;;4.43;100.00;99843.88;10440981;28;20055;-80
2023/12/30 04:50:49;;;;;;;8.52;2.08;;;;;;;4.73;100.00;99846.38;10432970;28;20121;-80
2023/12/30 04:55:54;;;;;;;9.85;2.53;;;;;;;4.77;100.00;99837.25;10414041;28;20071;-80
2023/12/30 05:00:57;;;;;;;3.40;1.20;;;;;;;4.57;100.00;99861.59;10421201;28;20049;-79
2023/12/30 05:06:00;;;;;;;10.40;1.50;;;;;;;4.74;100.00;99855.19;10433911;28;20056;-83
2023/12/30 05:11:07;;;;;;;6.15;1.70;;;;;;;4.60;100.00;99864.91;10431815;28;20052;-80
2023/12/30 05:16:11;;;;;;;9.02;1.65;;;;;;;4.63;100.00;99850.56;10426076;28;20476;-79
2023/12/30 05:21:15;;;;;;;7.22;2.22;;;;;;;4.63;100.00;99855.88;10456403;28;20103;-80
2023/12/30 05:26:19;;;;;;;17.45;3.42;;;;;;;4.92;100.00;99851.34;10448525;28;20589;-80
2023/12/30 05:31:22;;;;;;;10.20;1.92;;;;;;;4.73;100.00;99850.84;10425413;28;20056;-81
2023/12/30 05:36:25;;;;;;;14.80;2.60;;;;;;;4.98;100.00;99866.88;10452467;28;20139;-82
2023/12/30 05:41:29;;;;;;;9.23;2.67;;;;;;;4.97;100.00;99865.19;10444663;28;20055;-82
2023/12/30 05:46:32;;;;;;;13.88;2.72;;;;;;;4.84;100.00;99867.78;10420783;28;20479;-81
2023/12/30 05:51:41;;;;;;;7.78;2.15;;;;;;;5.01;100.00;99871.19;10443897;28;20143;-80
2023/12/30 05:56:46;;;;;;;10.88;2.40;;;;;;;5.13;100.00;99882.84;10447180;28;20650;-81
2023/12/30 06:01:49;;;;;;;13.55;3.45;;;;;;;5.05;100.00;99892.19;10435556;28;20052;-80
2023/12/30 06:06:53;;;;;;;13.43;2.65;;;;;;;4.96;100.00;99891.91;10454294;28;20438;-79
2023/12/30 06:11:57;;;;;;;9.88;2.40;;;;;;;5.11;100.00;99900.75;10445730;28;20615;-81
2023/12/30 06:17:00;;;;;;;12.57;2.88;;;;;;;5.00;100.00;99902.28;10423305;28;20041;-81
2023/12/30 06:22:04;;;;;;;9.50;2.35;;;;;;;5.05;100.00;99897.53;10450177;28;20049;-80
2023/12/30 06:27:08;;;;;;;9.73;2.90;;;;;;;4.99;100.00;99911.25;10439194;28;20146;-79
2023/12/30 06:32:12;;;;;;;16.45;4.13;;;;;;;5.22;100.00;99916.84;10454804;28;20948;-78
2023/12/30 06:37:15;;;;;;;14.90;3.33;;;;;;;5.16;100.00;99930.59;10470618;28;20056;-81
2023/12/30 06:42:19;;;;;;;11.23;3.05;;;;;;;5.64;100.00;99918.44;10451151;28;20806;-81
2023/12/30 06:47:22;;;;;;;12.98;2.90;;;;;;;5.40;100.00;99926.28;10441376;28;20055;-81
2023/12/30 06:52:25;;;;;;;11.43;2.63;;;;;;;5.14;100.00;99917.34;10447106;28;20492;-80
2023/12/30 06:57:30;;;;;;;11.80;3.17;;;;;;;5.47;100.00;99948.88;10453592;28;20118;-79
2023/12/30 07:02:33;;;;;;;10.55;2.15;;;;;;;5.40;100.00;99952.94;10435051;28;20079;-81
2023/12/30 07:07:36;;;;;;;10.15;2.88;;;;;;;5.39;100.00;99969.84;10451494;28;20052;-80
2023/12/30 07:12:40;;;;;;;9.55;4.15;;;;;;;5.45;100.00;99968.59;10444513;28;20140;-79
2023/12/30 07:17:44;;;;;;;12.65;2.88;;;;;;;5.44;100.00;99969.56;10450502;28;20175;-80
2023/12/30 07:22:47;;;;;;;8.73;2.83;;;;;;;5.24;100.00;99985.03;10435057;28;20139;-79
2023/12/30 07:27:51;;;;;;;15.10;2.40;;;;;;;5.19;100.00;99989.81;10424932;28;20067;-81
2023/12/30 07:32:55;;;;;;;8.05;3.13;;;;;;;5.43;100.00;99991.81;10440021;28;20064;-80
2023/12/30 07:37:57;;;;;;;9.60;2.65;;;;;;;5.33;100.00;99988.06;10443670;28;20500;-79
2023/12/30 07:43:02;;;;;;;16.58;3.63;;;;;;;4.98;100.00;99978.69;10452301;28;20049;-80
2023/12/30 07:48:05;;;;;;;11.32;2.90;;;;;;;5.45;100.00;100001.41;10416072;28;20061;-78
2023/12/30 07:53:09;;;;;;;9.15;2.38;;;;;;;5.10;100.00;99997.53;10432905;28;20051;-79
2023/12/30 07:58:14;;;;;;;11.15;3.00;;;;;;;5.54;100.00;99999.09;10451839;28;20060;-81
2023/12/30 08:03:17;;;;;;;6.65;2.42;;;;;;;5.44;100.00;100004.19;10438176;28;20056;-80
2023/12/30 08:08:20;;;;;;;10.57;4.05;;;;;;;5.49;100.00;100023.38;10422999;28;20078;-80
2023/12/30 08:13:24;;;;;;;12.23;3.90;;;;;;;5.23;100.00;100003.75;10428216;28;20049;-80
2023/12/30 08:18:27;;;;;;;14.52;3.95;;;;;;;5.38;100.00;100024.09;10457319;28;20049;-78
2023/12/30 08:23:30;;;;;;;22.70;3.15;;;;;;;5.49;100.00;100020.72;10455686;28;20067;-79
2023/12/30 08:28:36;;;;;;;6.28;2.60;;;;;;;5.47;100.00;100036.81;10450856;28;20061;-81
2023/12/30 08:33:39;;;;;;;4.40;2.33;;;;;;;5.40;100.00;100053.28;10430078;28;20052;-79
2023/12/30 08:38:42;;;;;;;10.48;2.72;;;;;;;5.67;100.00;100047.97;10444313;28;20586;-79
2023/12/30 08:43:51;;;;;;;11.70;2.95;;;;;;;5.45;100.00;100054.69;10447014;28;20538;-80
2023/12/30 08:48:54;;;;;;;13.15;3.17;;;;;;;5.31;100.00;100051.22;10462711;28;21010;-81
2023/12/30 08:53:57;;;;;;;14.75;3.08;;;;;;;5.49;100.00;100069.53;10441155;28;20070;-80
2023/12/30 08:59:01;;;;;;;12.05;2.50;;;;;;;5.64;100.00;100072.16;10427536;28;20053;-79
2023/12/30 09:04:04;;;;;;;16.98;4.00;;;;;;;5.50;100.00;100084.56;10435539;28;20053;-78
2023/12/30 09:09:08;;;;;;;14.52;3.90;;;;;;;5.77;100.00;100094.38;10441610;28;20060;-79
2023/12/30 09:14:13;;;;;;;10.32;2.97;;;;;;;5.55;100.00;100089.59;10440459;28;20049;-80
2023/12/30 09:19:16;;;;;;;9.82;2.28;;;;;;;5.64;100.00;100117.44;10441520;28;20377;-79
2023/12/30 09:24:19;;;;;;;9.48;2.65;;;;;;;5.70;100.00;100123.25;10423985;28;20120;-79
2023/12/30 09:29:24;;;;;;;10.57;2.55;;;;;;;5.74;100.00;100139.91;10435170;28;20045;-78
2023/12/30 09:34:29;;;;;;;11.00;3.05;;;;;;;6.37;100.00;100149.94;10426253;28;20053;-78
2023/12/30 09:39:45;;;;;;;7.75;2.15;;;;;;;6.56;98.73;100152.22;10432849;28;20123;-79
2023/12/30 09:44:51;;;;;;;11.02;3.30;;;;;;;5.94;100.00;100160.75;10433855;28;20044;-79
2023/12/30 09:49:55;;;;;;;11.85;2.92;;;;;;;6.32;100.00;100154.72;10437299;28;20061;-79
2023/12/30 09:54:59;;;;;;;11.35;3.08;;;;;;;6.32;100.00;100154.72;10435505;28;20496;-80
2023/12/30 10:00:08;;;;;;;11.40;3.03;;;;;;;6.50;99.06;100146.41;10452671;28;20050;-79
2023/12/30 10:05:11;;;;;;;15.18;2.92;;;;;;;6.56;98.78;100148.69;10440089;28;20064;-78
2023/12/30 10:10:17;;;;;;;13.20;2.78;;;;;;;6.31;100.00;100155.69;10444031;28;20708;-81
2023/12/30 10:15:21;;;;;;;17.40;4.18;;;;;;;6.06;100.00;100151.13;10448956;28;20044;-78
2023/12/30 10:20:24;;;;;;;19.35;2.95;;;;;;;6.26;100.00;100164.94;10441062;28;20051;-79
2023/12/30 10:25:27;;;;;;;8.18;2.55;;;;;;;6.28;100.00;100163.88;10423427;28;20045;-80
2023/12/30 10:30:31;;;;;;;20.65;4.03;;;;;;;6.60;99.59;100148.34;10437792;28;20516;-79
2023/12/30 10:35:35;;;;;;;14.18;3.40;;;;;;;6.55;98.60;100150.47;10421695;28;20387;-79
2023/12/30 10:40:39;;;;;;;13.50;3.45;;;;;;;6.40;99.71;100141.72;10427287;28;20056;-77
2023/12/30 10:45:44;;;;;;;10.43;2.92;;;;;;;7.20;95.38;100148.72;10446729;28;20520;-77
2023/12/30 10:50:53;;;;;;;17.70;3.58;;;;;;;6.73;96.93;100147.53;10422120;28;20048;-77
2023/12/30 10:56:00;;;;;;;7.88;3.15;;;;;;;7.13;96.41;100144.78;10417307;28;20048;-79
2023/12/30 11:01:05;;;;;;;12.07;3.05;;;;;;;7.25;93.61;100143.94;10468790;28;20036;-78
2023/12/30 11:06:19;;;;;;;12.05;2.30;;;;;;;6.92;94.18;100148.00;10443764;28;20052;-78
2023/12/30 11:11:23;;;;;;;11.80;2.95;;;;;;;6.77;96.16;100133.84;10446132;28;20056;-79
2023/12/30 11:16:33;;;;;;;14.10;2.88;;;;;;;6.64;96.99;100143.69;10430239;28;21161;-79
2023/12/30 11:21:38;;;;;;;18.15;3.08;;;;;;;7.38;93.08;100125.22;10436798;28;20052;-81
2023/12/30 11:26:43;;;;;;;9.52;3.47;;;;;;;7.12;91.98;100117.22;10445854;28;20051;-79
2023/12/30 11:31:50;;;;;;;14.90;3.70;;;;;;;7.20;92.51;100125.53;10446838;28;20088;-78
2023/12/30 11:36:54;;;;;;;14.43;3.85;;;;;;;7.75;87.52;100115.34;10433849;28;20052;-79
2023/12/30 11:41:58;;;;;;;8.45;3.03;;;;;;;7.89;84.77;100115.19;10417474;28;20052;-79
2023/12/30 11:47:03;;;;;;;13.60;3.60;;;;;;;7.89;85.36;100128.53;10443710;28;20045;-78
2023/12/30 11:52:07;;;;;;;18.30;3.20;;;;;;;8.30;82.08;100132.63;10442337;28;20055;-81
2023/12/30 11:57:12;;;;;;;12.48;2.75;;;;;;;7.59;86.80;100109.41;10424333;28;20504;-80
2023/12/30 12:02:18;;;;;;;10.80;3.55;;;;;;;7.20;88.90;100128.22;10428731;28;20067;-79
2023/12/30 12:07:21;;;;;;;5.88;2.45;;;;;;;7.07;90.31;100116.69;10435600;28;20049;-81
2023/12/30 12:12:24;;;;;;;16.92;4.32;;;;;;;7.04;90.28;100108.88;10444489;28;20135;-80
2023/12/30 12:17:29;;;;;;;10.35;2.85;;;;;;;6.68;93.28;100133.66;10442790;28;20049;-79
2023/12/30 12:22:32;;;;;;;8.50;3.55;;;;;;;6.99;92.99;100111.03;10437333;28;20044;-77
2023/12/30 12:27:36;;;;;;;13.18;4.07;;;;;;;7.05;92.71;100123.97;10438087;28;21446;-79
2023/12/30 12:32:42;;;;;;;12.55;4.22;;;;;;;6.99;94.87;100117.25;10419065;28;20051;-81
2023/12/30 12:37:45;;;;;;;19.65;4.78;;;;;;;6.94;95.51;100110.50;10417867;28;20132;-77
2023/12/30 12:42:48;;;;;;;11.65;4.30;;;;;;;6.91;96.43;100105.38;10450521;28;20052;-77
2023/12/30 12:47:52;;;;;;;8.57;4.32;;;;;;;7.06;94.95;100114.97;10445721;28;20053;-81
2023/12/30 12:52:56;;;;;;;16.02;4.63;;;;;;;7.22;94.18;100098.72;10454713;28;20049;-78
2023/12/30 12:57:58;;;;;;;19.38;4.30;;;;;;;7.18;94.77;100099.91;10455323;28;20045;-80
2023/12/30 13:03:04;;;;;;;10.73;3.78;;;;;;;7.27;93.89;100117.97;10448967;28;20061;-79
2023/12/30 13:08:09;;;;;;;7.88;4.18;;;;;;;7.31;92.13;100111.41;10414937;28;20112;-79
2023/12/30 13:13:12;;;;;;;12.95;5.38;;;;;;;7.67;91.40;100107.88;10452848;28;20044;-80
2023/12/30 13:18:19;;;;;;;13.60;4.40;;;;;;;7.54;92.26;100115.09;10436447;28;20055;-80
2023/12/30 13:23:22;;;;;;;13.18;4.75;;;;;;;7.75;90.61;100106.47;10442584;28;20048;-80
2023/12/30 13:28:26;;;;;;;14.93;5.22;;;;;;;7.69;90.75;100103.28;10422275;28;20540;-80
2023/12/30 13:33:34;;;;;;;9.95;3.13;;;;;;;7.49;92.17;100109.25;10447418;28;20045;-80
2023/12/30 13:38:41;;;;;;;12.02;4.68;;;;;;;7.64;92.17;100109.94;10437632;28;20113;-80
2023/12/30 13:43:47;;;;;;;26.52;4.68;;;;;;;7.70;91.47;100102.31;10425387;28;20110;-77
2023/12/30 13:49:24;;;;;;;16.70;4.60;;;;;;;7.86;90.64;100086.00;10441748;28;20048;-79
2023/12/30 13:54:26;;;;;;;8.75;4.03;;;;;;;7.20;94.30;100087.28;10439398;28;20045;-80
2023/12/30 13:59:29;;;;;;;14.13;4.32;;;;;;;7.41;93.05;100080.41;10416962;28;20063;-79
2023/12/30 14:04:37;;;;;;;14.50;5.65;;;;;;;7.41;93.40;100085.75;10441424;28;21314;-81
2023/12/30 14:09:49;;;;;;;17.85;4.35;;;;;;;7.32;93.91;100082.88;10439429;28;20053;-78
2023/12/30 14:14:54;;;;;;;16.38;3.90;;;;;;;7.42;94.48;100079.44;10457298;28;20079;-79
2023/12/30 14:20:01;;;;;;;22.83;5.55;;;;;;;7.38;93.13;100074.44;10450979;28;20618;-79
2023/12/30 14:25:06;;;;;;;16.67;4.80;;;;;;;7.30;94.52;100064.31;10441202;28;20053;-80
2023/12/30 14:30:11;;;;;;;13.15;4.88;;;;;;;7.69;91.91;100068.53;10439137;28;20044;-79
2023/12/30 14:35:16;;;;;;;16.50;4.40;;;;;;;7.54;92.33;100084.84;10435834;28;20102;-78
2023/12/30 14:40:19;;;;;;;19.00;4.80;;;;;;;7.64;91.83;100072.50;10437109;28;20518;-80
2023/12/30 14:45:22;;;;;;;14.55;5.03;;;;;;;7.69;91.75;100073.03;10445723;28;20056;-78
2023/12/30 14:50:27;;;;;;;11.77;4.57;;;;;;;7.93;90.47;100086.41;10448528;28;20047;-81
2023/12/30 14:55:30;;;;;;;11.57;4.50;;;;;;;7.91;90.73;100083.84;10434383;28;20269;-80
2023/12/30 15:00:33;;;;;;;16.92;5.38;;;;;;;7.70;91.31;100078.25;10421663;28;20056;-79
2023/12/30 15:05:37;;;;;;;16.98;5.18;;;;;;;7.93;90.58;100076.56;10443858;28;20116;-79
2023/12/30 15:10:40;;;;;;;16.25;4.10;;;;;;;8.00;90.15;100076.94;10438103;28;20566;-80
2023/12/30 15:15:43;;;;;;;16.42;4.38;;;;;;;8.13;89.41;100071.53;10434271;28;20056;-79
2023/12/30 15:20:49;;;;;;;14.73;4.80;;;;;;;8.05;89.91;100065.91;10448829;28;20053;-78
2023/12/30 15:25:52;;;;;;;14.45;3.80;;;;;;;8.02;89.70;100061.63;10455994;28;20059;-80
2023/12/30 15:30:55;;;;;;;15.48;4.00;;;;;;;8.11;89.20;100060.94;10439287;28;20050;-80
2023/12/30 15:36:03;;;;;;;14.13;4.07;;;;;;;8.06;89.35;100051.53;10439481;28;21071;-80
2023/12/30 15:41:06;;;;;;;6.78;3.53;;;;;;;8.02;89.95;100056.28;10430208;28;20040;-79
2023/12/30 15:46:10;;;;;;;10.02;2.80;;;;;;;7.92;90.42;100052.59;10431635;28;20057;-78
2023/12/30 15:51:15;;;;;;;13.20;3.33;;;;;;;7.82;91.24;100059.63;10443202;28;20718;-78
2023/12/30 15:56:18;;;;;;;14.30;3.05;;;;;;;7.76;91.65;100055.53;10433094;28;20037;-76
2023/12/30 16:01:21;;;;;;;14.98;3.35;;;;;;;7.74;91.61;100044.13;10434797;28;20051;-79
2023/12/30 16:06:26;;;;;;;18.30;3.40;;;;;;;7.79;91.25;100055.34;10438512;28;20110;-77
2023/12/30 16:11:29;;;;;;;13.68;3.17;;;;;;;7.64;92.18;100054.66;10419171;28;20511;-78
2023/12/30 16:16:33;;;;;;;13.02;3.42;;;;;;;7.62;92.31;100053.91;10431240;28;20056;-78
2023/12/30 16:21:38;;;;;;;12.77;3.78;;;;;;;7.66;91.96;100055.41;10432259;28;20048;-79
2023/12/30 16:26:40;;;;;;;14.68;3.47;;;;;;;7.71;91.35;100055.06;10426463;28;21171;-78
2023/12/30 16:31:44;;;;;;;15.57;4.85;;;;;;;7.86;90.51;100053.91;10429557;28;20045;-79
2023/12/30 16:36:48;;;;;;;13.52;3.80;;;;;;;7.88;89.78;100049.28;10438423;28;20184;-79
2023/12/30 16:41:52;;;;;;;20.80;5.40;;;;;;;7.85;90.24;100046.84;10428389;28;20119;-81
2023/12/30 16:46:55;;;;;;;20.58;4.70;;;;;;;7.86;89.94;100045.88;10427175;28;20604;-78
2023/12/30 16:51:59;;;;;;;15.10;3.30;;;;;;;7.85;89.76;100051.34;10429451;28;20523;-78
2023/12/30 16:57:02;;;;;;;13.93;3.50;;;;;;;7.91;89.04;100049.06;10433347;28;20629;-78
2023/12/30 17:02:06;;;;;;;12.50;3.20;;;;;;;7.71;89.11;100045.22;10440914;28;20053;-80
2023/12/30 17:07:11;;;;;;;10.68;3.55;;;;;;;7.90;88.05;100044.69;10433434;28;20048;-79
2023/12/30 17:12:14;;;;;;;21.13;4.00;;;;;;;7.87;86.71;100044.06;10423760;28;20063;-79
2023/12/30 17:17:17;;;;;;;15.65;3.42;;;;;;;7.95;85.89;100042.53;10442660;28;20681;-79
2023/12/30 17:22:22;;;;;;;12.80;2.60;;;;;;;7.97;85.62;100038.88;10471489;28;20114;-78
2023/12/30 17:27:25;;;;;;;12.90;3.30;;;;;;;8.12;85.17;100029.69;10446917;28;20051;-78
2023/12/30 17:32:29;;;;;;;13.40;3.22;;;;;;;8.24;84.66;100027.91;10455813;28;20048;-78
2023/12/30 17:37:33;;;;;;;16.45;3.92;;;;;;;8.16;85.60;100034.69;10461801;28;20106;-80
2023/12/30 17:42:38;;;;;;;13.02;3.67;;;;;;;8.07;85.71;100034.53;10423329;28;20056;-78
2023/12/30 17:47:41;;;;;;;14.07;3.90;;;;;;;8.07;85.18;100034.53;10422574;28;20040;-79
2023/12/30 17:52:45;;;;;;;11.00;3.45;;;;;;;8.04;84.85;100040.13;10429940;28;20058;-80
2023/12/30 17:57:49;;;;;;;14.32;3.65;;;;;;;8.02;84.36;100034.03;10438107;28;20172;-78
2023/12/30 18:02:52;;;;;;;9.35;3.35;;;;;;;7.74;84.77;100033.44;10437307;28;20041;-78
2023/12/30 18:07:56;;;;;;;13.10;3.00;;;;;;;7.76;83.99;100026.13;10444462;28;20048;-79
2023/12/30 18:12:59;;;;;;;12.45;4.13;;;;;;;7.82;83.60;100027.53;10448807;28;20048;-79
2023/12/30 18:18:02;;;;;;;15.48;4.15;;;;;;;7.90;83.07;100017.09;10437632;28;20121;-80
2023/12/30 18:23:07;;;;;;;10.50;3.05;;;;;;;7.80;82.55;100016.94;10445407;28;20056;-79
2023/12/30 18:28:10;;;;;;;16.65;3.10;;;;;;;7.93;81.84;100014.19;10448435;28;20049;-79
2023/12/30 18:33:13;;;;;;;19.00;3.97;;;;;;;7.86;81.98;100019.13;10436813;28;20051;-79
2023/12/30 18:38:19;;;;;;;14.52;7.85;;;;;;;7.90;81.29;100028.66;10447942;28;20048;-79
2023/12/30 18:43:22;;;;;;;12.88;3.38;;;;;;;7.87;81.47;100015.50;10444326;28;20169;-79
2023/12/30 18:48:25;;;;;;;11.48;3.95;;;;;;;7.95;81.20;100012.22;10432288;28;20615;-80
2023/12/30 18:53:29;;;;;;;12.55;3.25;;;;;;;7.89;81.25;100016.22;10414773;28;20056;-80
2023/12/30 18:58:32;;;;;;;9.10;2.78;;;;;;;7.89;81.11;100013.56;10427819;28;20051;-80
2023/12/30 19:03:35;;;;;;;9.77;3.25;;;;;;;7.91;81.19;100010.78;10428301;28;20044;-79
2023/12/30 19:08:40;;;;;;;11.68;2.35;;;;;;;7.87;80.83;100018.19;10411032;28;20052;-80
2023/12/30 19:13:44;;;;;;;6.55;2.60;;;;;;;7.92;80.62;100009.78;10425655;28;20212;-80
2023/12/30 19:18:47;;;;;;;8.63;2.75;;;;;;;7.94;80.67;99998.00;10427120;28;20052;-79
2023/12/30 19:23:52;;;;;;;7.50;2.45;;;;;;;7.89;80.70;99994.84;10435103;28;20149;-80
2023/12/30 19:28:54;;;;;;;6.45;2.10;;;;;;;7.93;80.96;99988.28;10416152;28;20056;-81
2023/12/30 19:33:58;;;;;;;9.45;1.95;;;;;;;7.94;80.99;99989.16;10412163;28;21129;-80
2023/12/30 19:39:04;;;;;;;4.97;2.13;;;;;;;7.92;80.67;99969.69;10406886;28;20087;-81
2023/12/30 19:44:07;;;;;;;8.05;1.73;;;;;;;7.77;80.64;99977.06;10426771;28;20131;-80
2023/12/30 19:49:11;;;;;;;9.23;2.97;;;;;;;7.85;80.20;99974.66;10458475;28;20086;-81
2023/12/30 19:54:16;;;;;;;5.88;2.20;;;;;;;7.79;80.08;99958.22;10436513;28;20049;-82
2023/12/30 19:59:19;;;;;;;3.92;1.65;;;;;;;7.62;80.46;99957.66;10427167;28;20052;-80
2023/12/30 20:04:22;;;;;;;3.85;1.92;;;;;;;7.62;80.45;99960.34;10422039;28;20056;-79
2023/12/30 20:09:26;;;;;;;6.32;2.70;;;;;;;7.53;80.94;99961.03;10407711;28;20045;-80
2023/12/30 20:14:29;;;;;;;11.43;4.43;;;;;;;7.48;81.28;99956.03;10409177;28;20044;-79
2023/12/30 20:19:34;;;;;;;9.15;4.07;;;;;;;7.28;82.01;99951.34;10416177;28;20049;-82
2023/12/30 20:24:38;;;;;;;11.20;4.22;;;;;;;7.25;82.42;99947.06;10408639;28;20447;-80
2023/12/30 20:29:41;;;;;;;9.32;3.85;;;;;;;7.19;83.17;99941.34;10423338;28;20051;-79
2023/12/30 20:34:45;;;;;;;9.45;4.30;;;;;;;7.17;83.39;99938.78;10431428;28;20056;-81
2023/12/30 20:39:50;;;;;;;11.88;2.90;;;;;;;7.08;84.04;99934.13;10433851;28;20061;-79
2023/12/30 20:44:53;;;;;;;14.32;2.85;;;;;;;7.04;84.54;99922.78;10424592;28;20041;-80
2023/12/30 20:49:56;;;;;;;8.65;2.50;;;;;;;7.11;84.89;99917.88;10448449;28;20131;-80
2023/12/30 20:55:03;;;;;;;7.00;2.97;;;;;;;7.17;84.84;99917.41;10430493;28;20086;-79
2023/12/30 21:00:07;;;;;;;12.68;2.70;;;;;;;7.17;84.80;99913.88;10442998;28;20776;-80
2023/12/30 21:05:10;;;;;;;9.95;2.63;;;;;;;7.23;84.62;99906.25;10434696;28;20045;-80
2023/12/30 21:10:16;;;;;;;2.63;1.60;;;;;;;7.22;84.42;99888.53;10424608;28;20047;-80
2023/12/30 21:15:19;;;;;;;5.97;1.90;;;;;;;7.24;84.63;99877.72;10440023;28;21549;-80
2023/12/30 21:20:22;;;;;;;8.18;1.60;;;;;;;7.15;85.05;99873.91;10407135;28;20051;-78
2023/12/30 21:25:26;;;;;;;5.43;1.92;;;;;;;7.20;84.79;99865.56;10435803;28;20752;-80
2023/12/30 21:30:29;;;;;;;8.98;2.13;;;;;;;7.28;84.50;99857.81;10424160;28;20060;-80
2023/12/30 21:35:32;;;;;;;4.25;1.75;;;;;;;7.23;84.71;99850.16;10424914;28;20064;-81
2023/12/30 21:40:37;;;;;;;6.30;1.52;;;;;;;7.29;84.47;99856.84;10436454;28;20048;-79
2023/12/30 21:45:40;;;;;;;8.80;1.85;;;;;;;7.35;83.85;99835.03;10444336;28;20098;-79
2023/12/30 21:50:43;;;;;;;3.15;1.60;;;;;;;7.32;84.04;99827.22;10434963;28;20060;-80
2023/12/30 21:55:47;;;;;;;7.20;2.10;;;;;;;7.30;83.92;99820.31;10432430;28;20036;-80
2023/12/30 22:00:50;;;;;;;4.90;1.83;;;;;;;7.20;84.60;99823.69;10489764;28;20041;-80
2023/12/30 22:05:55;;;;;;;6.80;1.92;;;;;;;7.34;84.46;99817.28;10472620;28;20044;-80
2023/12/30 22:10:59;;;;;;;8.40;1.33;;;;;;;7.47;83.64;99817.19;10433019;28;20083;-79
2023/12/30 22:16:02;;;;;;;2.88;1.42;;;;;;;7.52;83.27;99804.34;10439525;28;20059;-78
2023/12/30 22:21:05;;;;;;;3.97;1.60;;;;;;;7.53;83.24;99803.34;10449480;28;20064;-79
2023/12/30 22:26:10;;;;;;;3.22;1.58;;;;;;;7.54;83.00;99804.19;10444523;28;20044;-80
2023/12/30 22:31:13;;;;;;;7.32;1.95;;;;;;;7.52;82.99;99804.34;10443737;28;20052;-78
2023/12/30 22:36:16;;;;;;;6.15;1.27;;;;;;;7.53;83.09;99814.03;10410112;28;20060;-80
2023/12/30 22:41:20;;;;;;;6.80;1.90;;;;;;;7.52;83.05;99806.16;10423100;28;21609;-79
2023/12/30 22:46:23;;;;;;;4.43;1.75;;;;;;;7.50;83.13;99808.94;10436448;28;20515;-80
2023/12/30 22:51:26;;;;;;;4.10;2.08;;;;;;;7.57;82.89;99803.97;10427295;28;20132;-79
2023/12/30 22:56:30;;;;;;;8.40;1.67;;;;;;;7.62;82.94;99785.75;10421401;28;21300;-78
2023/12/30 23:01:33;;;;;;;5.63;1.55;;;;;;;7.61;83.05;99784.06;10438263;28;20049;-80
2023/12/30 23:06:37;;;;;;;4.38;1.42;;;;;;;7.64;82.85;99773.13;10441370;28;20048;-80
2023/12/30 23:11:41;;;;;;;3.45;1.17;;;;;;;7.58;83.06;99773.59;10439023;28;20684;-80
2023/12/30 23:16:45;;;;;;;6.80;2.25;;;;;;;7.69;82.78;99753.06;10418288;28;20656;-78
2023/12/30 23:21:48;;;;;;;2.25;1.10;;;;;;;7.56;83.48;99752.31;10431678;28;20053;-81
2023/12/30 23:26:52;;;;;;;5.95;1.20;;;;;;;7.53;83.78;99730.34;10437626;28;20109;-79